Time;durP1;ratioP1;P1;durP2;ratioP2;P2;SDS_P1;SDS_P2;PMS_P1;PMS_P2;Temp;Humidity;BMP_temperature;BMP_pressure;BME280_temperature;BME280_humidity;BME280_pressure;Samples;Min_cycle;Max_cycle;Signal;HPM_P1;HPM_P2
2021/06/05 00:00:20;;;;;;;7.18;4.78;;;18.20;1.00;;;;;;5012090;28;20060;-91
2021/06/05 00:02:45;;;;;;;6.00;4.55;;;18.30;1.00;;;;;;5013402;28;20022;-90
2021/06/05 00:05:12;;;;;;;4.35;3.95;;;18.30;1.00;;;;;;4995383;28;20053;-91
2021/06/05 00:07:38;;;;;;;3.45;3.15;;;18.30;1.00;;;;;;5012204;28;20030;-90
2021/06/05 00:10:07;;;;;;;5.97;4.03;;;18.30;1.00;;;;;;5013198;28;20080;-89
2021/06/05 00:12:33;;;;;;;4.45;3.53;;;18.30;1.00;;;;;;5012713;28;20029;-91
2021/06/05 00:14:59;;;;;;;4.63;3.80;;;18.50;1.00;;;;;;5012124;28;20050;-91
2021/06/05 00:17:24;;;;;;;4.03;3.63;;;18.60;1.00;;;;;;5027556;28;20116;-90
2021/06/05 00:19:51;;;;;;;4.22;3.38;;;18.70;1.00;;;;;;5012457;28;20418;-90
2021/06/05 00:22:17;;;;;;;2.92;2.72;;;19.10;1.00;;;;;;5012540;28;20033;-91
2021/06/05 00:24:43;;;;;;;2.80;2.60;;;18.70;1.00;;;;;;5012114;28;20030;-90
2021/06/05 00:27:10;;;;;;;2.20;2.03;;;18.70;1.00;;;;;;4994471;28;20122;-91
2021/06/05 00:29:35;;;;;;;2.53;2.10;;;18.60;1.00;;;;;;4994735;28;20033;-91
2021/06/05 00:32:01;;;;;;;4.50;2.50;;;18.60;1.00;;;;;;4994853;28;20399;-90
2021/06/05 00:34:27;;;;;;;6.18;2.47;;;18.70;1.00;;;;;;4994825;28;20022;-91
2021/06/05 00:36:53;;;;;;;4.10;2.25;;;18.80;1.00;;;;;;5012585;28;20034;-90
2021/06/05 00:39:18;;;;;;;3.40;2.67;;;18.80;1.00;;;;;;5012215;28;20021;-90
2021/06/05 00:41:45;;;;;;;2.70;2.50;;;18.70;1.00;;;;;;5012633;28;20486;-90
2021/06/05 00:44:13;;;;;;;3.28;2.42;;;18.70;1.00;;;;;;4995506;28;20422;-91
2021/06/05 00:46:39;;;;;;;3.58;2.42;;;18.90;1.00;;;;;;5012405;28;20053;-91
2021/06/05 00:49:06;;;;;;;3.10;2.45;;;18.80;1.00;;;;;;4995034;28;20113;-91
2021/06/05 00:51:42;;;;;;;4.22;2.65;;;18.80;1.00;;;;;;5011642;28;20478;-90
2021/06/05 00:54:09;;;;;;;4.63;2.83;;;18.80;1.00;;;;;;5012356;28;20038;-89
2021/06/05 00:56:35;;;;;;;3.30;2.90;;;18.70;1.00;;;;;;5012215;28;20021;-91
2021/06/05 00:59:02;;;;;;;3.28;2.30;;;18.70;1.00;;;;;;5012253;28;20487;-91
2021/06/05 01:01:30;;;;;;;2.03;1.83;;;18.60;1.00;;;;;;5012754;28;20173;-91
2021/06/05 01:03:56;;;;;;;3.67;2.50;;;18.60;1.00;;;;;;5012531;28;20065;-91
2021/06/05 01:06:50;;;;;;;3.15;2.50;;;18.60;1.00;;;;;;5011854;28;20037;-91
2021/06/05 01:09:26;;;;;;;4.38;2.38;;;18.70;1.00;;;;;;4994591;28;20033;-91
2021/06/05 01:11:54;;;;;;;4.00;2.83;;;18.70;1.00;;;;;;4994685;28;20029;-90
2021/06/05 01:14:29;;;;;;;5.05;2.95;;;18.70;1.00;;;;;;5011827;28;20588;-90
2021/06/05 01:17:02;;;;;;;3.92;2.60;;;18.60;1.00;;;;;;4980208;28;20026;-91
2021/06/05 01:20:03;;;;;;;2.85;2.53;;;18.50;1.00;;;;;;5012667;28;20030;-91
2021/06/05 01:22:47;;;;;;;6.68;2.75;;;18.40;1.00;;;;;;4969220;28;20558;-92
2021/06/05 01:25:21;;;;;;;3.22;2.63;;;18.40;1.00;;;;;;4955299;28;20054;-91
2021/06/05 01:27:57;;;;;;;4.82;2.88;;;18.30;1.00;;;;;;4971217;28;20050;-91
2021/06/05 01:30:36;;;;;;;5.72;2.97;;;18.40;1.00;;;;;;4955044;28;20033;-91
2021/06/05 01:33:02;;;;;;;4.57;2.80;;;18.40;1.00;;;;;;4954345;28;20043;-92
2021/06/05 01:35:31;;;;;;;3.70;3.10;;;18.30;1.00;;;;;;4971090;28;20038;-91
2021/06/05 01:37:58;;;;;;;3.30;3.00;;;18.30;1.00;;;;;;4970757;28;20031;-91
2021/06/05 01:40:27;;;;;;;4.38;3.28;;;18.20;1.00;;;;;;4970639;28;20043;-91
2021/06/05 01:42:54;;;;;;;3.35;3.05;;;18.20;1.00;;;;;;4970668;28;20055;-90
2021/06/05 01:45:26;;;;;;;3.50;2.72;;;18.20;1.00;;;;;;4970483;28;20496;-91
2021/06/05 01:47:52;;;;;;;5.75;2.90;;;18.40;1.00;;;;;;4970148;28;20035;-90
2021/06/05 01:50:20;;;;;;;3.92;3.05;;;18.40;1.00;;;;;;4954860;28;20062;-91
2021/06/05 01:52:46;;;;;;;3.25;2.92;;;18.30;1.00;;;;;;4970686;28;20038;-91
2021/06/05 01:55:20;;;;;;;3.00;2.50;;;18.20;1.00;;;;;;4970770;28;20435;-91
2021/06/05 01:57:51;;;;;;;3.08;2.55;;;18.30;1.00;;;;;;4970213;28;20135;-90
2021/06/05 02:00:22;;;;;;;3.97;3.08;;;18.30;1.00;;;;;;5004789;28;20073;-91
2021/06/05 02:02:48;;;;;;;7.95;3.10;;;18.40;1.00;;;;;;5011584;28;20030;-91
2021/06/05 02:05:13;;;;;;;4.22;2.88;;;18.60;1.00;;;;;;4997514;28;20045;-91
2021/06/05 02:07:39;;;;;;;7.05;3.10;;;18.30;1.00;;;;;;4997565;28;20041;-90
2021/06/05 02:10:16;;;;;;;6.20;3.15;;;18.40;1.00;;;;;;4997936;28;20109;-90
2021/06/05 02:12:41;;;;;;;3.70;3.03;;;18.30;1.00;;;;;;5014834;28;20080;-90
2021/06/05 02:15:22;;;;;;;4.05;2.95;;;18.30;1.00;;;;;;5015165;28;20396;-91
2021/06/05 02:17:48;;;;;;;4.00;3.15;;;18.30;1.00;;;;;;5015337;28;20026;-91
2021/06/05 02:20:29;;;;;;;5.32;2.30;;;18.30;1.00;;;;;;4997657;28;20034;-91
2021/06/05 02:22:59;;;;;;;2.63;2.42;;;18.20;1.00;;;;;;4982595;28;20084;-91
2021/06/05 02:25:26;;;;;;;3.08;2.67;;;18.30;1.00;;;;;;5015316;28;20092;-91
2021/06/05 02:27:54;;;;;;;3.55;2.30;;;18.20;1.00;;;;;;4997692;28;20479;-91
2021/06/05 02:30:21;;;;;;;3.67;2.60;;;18.10;1.00;;;;;;5014931;28;20029;-90
2021/06/05 02:32:47;;;;;;;3.22;2.20;;;18.10;1.00;;;;;;5014123;28;20072;-90
2021/06/05 02:35:16;;;;;;;3.53;2.17;;;18.10;1.00;;;;;;4997019;28;20390;-92
2021/06/05 02:37:44;;;;;;;2.72;2.20;;;18.00;1.00;;;;;;5014969;28;20125;-91
2021/06/05 02:40:14;;;;;;;2.60;1.88;;;18.00;1.00;;;;;;4997371;28;20026;-91
2021/06/05 02:42:40;;;;;;;1.70;1.60;;;18.10;1.00;;;;;;4996728;28;20577;-91
2021/06/05 02:45:19;;;;;;;3.42;1.75;;;18.10;1.00;;;;;;5013490;28;20046;-91
2021/06/05 02:48:02;;;;;;;4.68;2.15;;;18.00;1.00;;;;;;4996971;28;20118;-90
2021/06/05 02:50:50;;;;;;;3.50;1.80;;;18.00;1.00;;;;;;5014418;28;20022;-90
2021/06/05 02:53:16;;;;;;;2.17;1.98;;;18.00;1.00;;;;;;4996467;28;20121;-90
2021/06/05 02:55:43;;;;;;;4.47;2.25;;;17.80;1.00;;;;;;5014110;28;20041;-90
2021/06/05 02:58:09;;;;;;;2.42;2.10;;;17.80;1.00;;;;;;4996809;28;20022;-90
2021/06/05 03:00:44;;;;;;;4.35;2.40;;;17.80;1.00;;;;;;5013467;28;20498;-91
2021/06/05 03:03:14;;;;;;;4.53;2.30;;;17.70;1.00;;;;;;5014475;28;20030;-90
2021/06/05 03:05:41;;;;;;;4.13;2.22;;;17.80;1.00;;;;;;5013571;28;20038;-90
2021/06/05 03:08:09;;;;;;;3.60;2.25;;;17.90;1.00;;;;;;5013697;28;20057;-90
2021/06/05 03:10:37;;;;;;;3.00;2.17;;;18.10;1.00;;;;;;5013732;28;20486;-90
2021/06/05 03:13:04;;;;;;;3.78;2.22;;;18.10;1.00;;;;;;4996574;28;20429;-89
2021/06/05 03:15:31;;;;;;;3.35;2.33;;;18.20;1.00;;;;;;5012133;28;20050;-90
2021/06/05 03:17:57;;;;;;;2.45;2.20;;;18.10;1.00;;;;;;4996252;28;20506;-89
2021/06/05 03:20:25;;;;;;;3.03;2.40;;;18.10;1.00;;;;;;5013691;28;20049;-90
2021/06/05 03:22:51;;;;;;;3.00;2.70;;;18.30;1.00;;;;;;5013467;28;20026;-90
2021/06/05 03:25:18;;;;;;;3.22;2.50;;;18.20;1.00;;;;;;4996878;28;20038;-90
2021/06/05 03:27:44;;;;;;;4.43;2.78;;;18.40;1.00;;;;;;4995816;28;20040;-90
2021/06/05 03:30:11;;;;;;;4.90;2.70;;;18.30;1.00;;;;;;5013061;28;20613;-90
2021/06/05 03:32:37;;;;;;;2.75;2.40;;;18.20;1.00;;;;;;5013239;28;20079;-90
2021/06/05 03:35:03;;;;;;;2.60;2.40;;;18.10;1.00;;;;;;4996149;28;20120;-90
2021/06/05 03:37:29;;;;;;;2.67;2.33;;;18.00;1.00;;;;;;4995440;28;20022;-90
2021/06/05 03:39:54;;;;;;;3.83;2.50;;;18.00;1.00;;;;;;5013540;28;20044;-90
2021/06/05 03:42:20;;;;;;;4.53;2.00;;;18.00;1.00;;;;;;5012807;28;20025;-90
2021/06/05 03:44:45;;;;;;;5.60;2.60;;;18.50;1.00;;;;;;5012531;28;20072;-90
2021/06/05 03:47:11;;;;;;;5.20;2.60;;;18.20;1.00;;;;;;5013389;28;20582;-90
2021/06/05 03:49:37;;;;;;;3.95;2.50;;;18.10;1.00;;;;;;5012045;28;20030;-90
2021/06/05 03:52:03;;;;;;;2.42;2.22;;;17.90;1.00;;;;;;4996097;28;20053;-90
2021/06/05 03:54:28;;;;;;;3.00;2.67;;;18.00;1.00;;;;;;4995479;28;20033;-89
2021/06/05 03:56:54;;;;;;;4.43;2.42;;;18.00;1.00;;;;;;4995026;28;20029;-89
2021/06/05 03:59:20;;;;;;;3.55;2.67;;;18.00;1.00;;;;;;5012348;28;20565;-90
2021/06/05 04:01:46;;;;;;;4.53;2.50;;;18.00;1.00;;;;;;5012795;28;20022;-90
2021/06/05 04:04:11;;;;;;;3.63;2.50;;;17.90;1.00;;;;;;5013132;28;20033;-90
2021/06/05 04:06:38;;;;;;;5.15;2.83;;;17.90;1.00;;;;;;5012627;28;20038;-91
2021/06/05 04:09:05;;;;;;;3.65;3.17;;;17.90;1.00;;;;;;5012801;28;20065;-90
2021/06/05 04:11:33;;;;;;;3.88;2.35;;;17.80;1.00;;;;;;5012365;28;20026;-90
2021/06/05 04:14:01;;;;;;;3.67;2.80;;;17.70;1.00;;;;;;5011991;28;20161;-90
2021/06/05 04:16:27;;;;;;;4.28;2.80;;;17.70;1.00;;;;;;5013247;28;20033;-90
2021/06/05 04:18:53;;;;;;;2.95;2.50;;;17.60;1.00;;;;;;5012672;28;20391;-90
2021/06/05 04:21:21;;;;;;;4.10;2.90;;;17.60;1.00;;;;;;5012464;28;20475;-89
2021/06/05 04:23:47;;;;;;;2.95;2.75;;;17.50;1.00;;;;;;5012257;28;20132;-90
2021/06/05 04:26:13;;;;;;;3.95;2.70;;;17.50;1.00;;;;;;5012149;28;20065;-90
2021/06/05 04:28:40;;;;;;;5.20;2.60;;;17.50;1.00;;;;;;4995102;28;20034;-90
2021/06/05 04:31:06;;;;;;;4.80;3.00;;;17.40;1.00;;;;;;4995011;28;20022;-90
2021/06/05 04:33:33;;;;;;;5.57;3.05;;;17.30;1.00;;;;;;5012282;28;20038;-90
2021/06/05 04:36:02;;;;;;;2.70;2.50;;;17.30;1.00;;;;;;5011813;28;20033;-90
2021/06/05 04:38:27;;;;;;;4.93;2.70;;;17.30;1.00;;;;;;5012539;28;20483;-90
2021/06/05 04:40:54;;;;;;;3.30;2.88;;;17.30;1.00;;;;;;5012570;28;20030;-90
2021/06/05 04:43:21;;;;;;;3.13;2.80;;;17.40;1.00;;;;;;5012427;28;20409;-90
2021/06/05 04:45:47;;;;;;;3.42;3.03;;;17.50;1.00;;;;;;5011157;28;20034;-90
2021/06/05 04:48:14;;;;;;;4.05;3.00;;;17.50;1.00;;;;;;4994214;28;20101;-90
2021/06/05 04:50:42;;;;;;;3.13;2.83;;;17.50;1.00;;;;;;5011921;28;20594;-90
2021/06/05 04:53:08;;;;;;;6.15;2.55;;;17.60;1.00;;;;;;5012265;28;20040;-90
2021/06/05 04:55:35;;;;;;;4.03;2.80;;;17.60;1.00;;;;;;4994234;28;20472;-90
2021/06/05 04:58:02;;;;;;;2.88;2.58;;;17.70;1.00;;;;;;5005969;28;20100;-89
2021/06/05 05:00:48;;;;;;;3.42;2.63;;;17.70;1.00;;;;;;5011722;28;20073;-90
2021/06/05 05:03:17;;;;;;;3.08;2.67;;;17.80;1.00;;;;;;4994202;28;20048;-90
2021/06/05 05:05:43;;;;;;;2.67;2.47;;;17.90;1.00;;;;;;5011822;28;20041;-90
2021/06/05 05:08:12;;;;;;;4.43;2.75;;;17.80;1.00;;;;;;4994349;28;20057;-90
2021/06/05 05:10:43;;;;;;;5.45;2.63;;;17.80;1.00;;;;;;5011558;28;20022;-90
2021/06/05 05:13:09;;;;;;;5.97;2.83;;;18.30;1.00;;;;;;5012240;28;20034;-90
2021/06/05 05:15:35;;;;;;;4.70;3.15;;;17.90;1.00;;;;;;5011093;28;20054;-90
2021/06/05 05:18:00;;;;;;;4.95;3.00;;;18.00;1.00;;;;;;5011552;28;20049;-90
2021/06/05 05:20:37;;;;;;;3.38;3.00;;;17.90;1.00;;;;;;5012352;28;20498;-90
2021/06/05 05:23:03;;;;;;;2.45;2.25;;;18.00;1.00;;;;;;4993909;28;20030;-90
2021/06/05 05:25:29;;;;;;;5.40;3.45;;;18.20;1.00;;;;;;4993676;28;20200;-90
2021/06/05 05:27:55;;;;;;;4.07;3.30;;;18.10;1.00;;;;;;4994471;28;20095;-90
2021/06/05 05:30:33;;;;;;;4.72;3.00;;;18.20;1.00;;;;;;5011836;28;20045;-90
2021/06/05 05:33:00;;;;;;;3.83;2.83;;;18.40;1.00;;;;;;4993898;28;20308;-91
2021/06/05 05:35:26;;;;;;;4.40;3.17;;;18.50;1.00;;;;;;5011086;28;20037;-87
2021/06/05 05:37:52;;;;;;;3.78;3.25;;;18.60;1.00;;;;;;4994666;28;20037;-93
2021/06/05 05:40:19;;;;;;;4.00;3.50;;;18.80;1.00;;;;;;5016525;28;20026;-94
2021/06/05 05:42:45;;;;;;;5.88;3.25;;;18.80;1.00;;;;;;5015847;28;20095;-93
2021/06/05 05:45:12;;;;;;;4.43;2.85;;;18.90;1.00;;;;;;5015918;28;20038;-95
2021/06/05 05:47:38;;;;;;;4.00;2.65;;;19.10;1.00;;;;;;5015444;28;20026;-95
2021/06/05 05:50:06;;;;;;;5.05;2.78;;;19.20;1.00;;;;;;5015932;28;20132;-92
2021/06/05 05:52:32;;;;;;;5.20;2.70;;;19.20;1.00;;;;;;5015633;28;20540;-87
2021/06/05 05:54:58;;;;;;;2.60;2.40;;;19.00;1.00;;;;;;4997745;28;20026;-89
2021/06/05 05:57:23;;;;;;;3.10;2.80;;;19.00;1.00;;;;;;5014506;28;20096;-87
2021/06/05 05:59:49;;;;;;;4.13;2.70;;;19.20;1.00;;;;;;4996882;28;20033;-87
2021/06/05 06:02:14;;;;;;;4.60;2.90;;;19.40;1.00;;;;;;5014124;28;20045;-87
2021/06/05 06:04:40;;;;;;;3.33;2.83;;;19.50;1.00;;;;;;5014779;28;20034;-88
2021/06/05 06:07:06;;;;;;;3.72;2.60;;;19.50;1.00;;;;;;4997626;28;20041;-87
2021/06/05 06:09:31;;;;;;;3.70;2.83;;;19.60;1.00;;;;;;5014902;28;20037;-90
2021/06/05 06:11:57;;;;;;;3.35;2.65;;;19.70;1.00;;;;;;5016178;28;20862;-91
2021/06/05 06:14:23;;;;;;;4.32;2.80;;;19.90;1.00;;;;;;4997557;28;20034;-90
2021/06/05 06:16:49;;;;;;;2.70;2.50;;;20.10;1.00;;;;;;5015108;28;20037;-91
2021/06/05 06:19:14;;;;;;;4.10;2.40;;;20.00;1.00;;;;;;5015293;28;20094;-91
2021/06/05 06:21:42;;;;;;;4.22;2.10;;;20.10;1.00;;;;;;5013955;28;20037;-91
2021/06/05 06:24:09;;;;;;;2.35;1.95;;;20.10;1.00;;;;;;5015127;28;20037;-91
2021/06/05 06:26:35;;;;;;;2.20;2.00;;;20.20;1.00;;;;;;5014379;28;20113;-88
2021/06/05 06:29:12;;;;;;;2.13;1.92;;;20.30;1.00;;;;;;5015137;28;20030;-91
2021/06/05 06:31:39;;;;;;;4.47;2.28;;;20.50;1.00;;;;;;4996996;28;20030;-91
2021/06/05 06:34:04;;;;;;;2.70;2.17;;;20.60;1.00;;;;;;5015495;28;20556;-91
2021/06/05 06:36:30;;;;;;;3.60;1.80;;;20.60;1.00;;;;;;4997116;28;20077;-91
2021/06/05 06:38:56;;;;;;;6.82;2.40;;;20.70;1.00;;;;;;5015619;28;20026;-90
2021/06/05 06:41:27;;;;;;;4.22;2.00;;;20.80;1.00;;;;;;4998186;28;20088;-91
2021/06/05 06:43:55;;;;;;;5.50;1.60;;;20.70;1.00;;;;;;4997557;28;20394;-91
2021/06/05 06:46:25;;;;;;;3.97;2.10;;;20.50;1.00;;;;;;5016171;28;20568;-90
2021/06/05 06:48:52;;;;;;;5.88;1.98;;;20.70;1.00;;;;;;4997021;28;20520;-90
2021/06/05 06:51:18;;;;;;;6.25;2.00;;;20.90;1.00;;;;;;5014625;28;20030;-91
2021/06/05 06:53:44;;;;;;;2.78;2.05;;;21.00;1.00;;;;;;4997470;28;20048;-88
2021/06/05 06:56:10;;;;;;;2.13;1.77;;;21.00;1.00;;;;;;4997508;28;20026;-90
2021/06/05 06:58:37;;;;;;;2.25;1.77;;;21.00;1.00;;;;;;5015494;28;20084;-94
2021/06/05 07:01:04;;;;;;;2.17;1.80;;;20.80;1.00;;;;;;5015903;28;20026;-91
2021/06/05 07:03:30;;;;;;;2.80;1.98;;;20.70;1.00;;;;;;4996740;28;20053;-91
2021/06/05 07:05:55;;;;;;;2.83;1.70;;;20.70;1.00;;;;;;4996417;28;20568;-91
2021/06/05 07:08:27;;;;;;;3.30;1.90;;;20.50;1.00;;;;;;4996179;28;20437;-91
2021/06/05 07:10:57;;;;;;;2.63;1.60;;;20.40;1.00;;;;;;4982342;28;20038;-91
2021/06/05 07:13:24;;;;;;;1.60;1.50;;;20.20;1.00;;;;;;5013964;28;20573;-90
2021/06/05 07:15:50;;;;;;;2.15;1.80;;;20.30;1.00;;;;;;4997089;28;20061;-91
2021/06/05 07:18:18;;;;;;;2.50;1.70;;;20.30;1.00;;;;;;5013949;28;20088;-91
2021/06/05 07:20:49;;;;;;;1.70;1.60;;;20.30;1.00;;;;;;5013700;28;20042;-91
2021/06/05 07:23:17;;;;;;;1.98;1.80;;;20.50;1.00;;;;;;5013788;28;20482;-91
2021/06/05 07:25:42;;;;;;;1.60;1.50;;;20.50;1.00;;;;;;4996599;28;20033;-91
2021/06/05 07:28:13;;;;;;;2.38;1.80;;;20.60;1.00;;;;;;5014132;28;20026;-91
2021/06/05 07:30:39;;;;;;;2.15;1.80;;;20.60;1.00;;;;;;4995736;28;20582;-91
2021/06/05 07:33:05;;;;;;;2.00;1.60;;;20.50;1.00;;;;;;5013962;28;20116;-91
2021/06/05 07:35:30;;;;;;;1.73;1.50;;;20.60;1.00;;;;;;4995930;28;20029;-91
2021/06/05 07:37:59;;;;;;;2.33;1.65;;;20.70;1.00;;;;;;5013354;28;20113;-91
2021/06/05 07:40:25;;;;;;;2.20;1.73;;;21.00;1.00;;;;;;4996463;28;20037;-91
2021/06/05 07:42:51;;;;;;;2.00;1.40;;;20.90;1.00;;;;;;5013276;28;20018;-92
2021/06/05 07:45:16;;;;;;;2.85;1.55;;;20.90;1.00;;;;;;5012779;28;20045;-91
2021/06/05 07:47:42;;;;;;;2.85;1.70;;;21.20;1.00;;;;;;5013490;28;20398;-91
2021/06/05 07:50:11;;;;;;;2.42;1.60;;;21.50;1.00;;;;;;5012691;28;20402;-91
2021/06/05 07:52:37;;;;;;;3.08;1.42;;;21.80;1.00;;;;;;5012938;28;20033;-91
2021/06/05 07:55:03;;;;;;;1.65;1.50;;;22.00;1.00;;;;;;5013991;28;20022;-91
2021/06/05 07:57:29;;;;;;;2.47;1.70;;;22.00;1.00;;;;;;4995434;28;20042;-90
2021/06/05 07:59:55;;;;;;;2.03;1.50;;;22.20;1.00;;;;;;5012865;28;20033;-90
2021/06/05 08:02:20;;;;;;;2.03;1.73;;;22.20;99.90;;;;;;4994698;28;20120;-91
2021/06/05 08:04:46;;;;;;;1.67;1.58;;;21.90;1.00;;;;;;4995154;28;20393;-90
2021/06/05 08:07:12;;;;;;;1.40;1.20;;;22.00;1.00;;;;;;5013336;28;20042;-91
2021/06/05 08:09:38;;;;;;;1.50;1.30;;;21.70;99.90;;;;;;4995256;28;20030;-95
2021/06/05 08:12:05;;;;;;;1.42;1.33;;;21.80;1.00;;;;;;4995216;28;20054;-89
2021/06/05 08:14:31;;;;;;;4.20;1.25;;;22.00;99.90;;;;;;5026998;28;20130;-89
2021/06/05 08:16:57;;;;;;;0.90;0.85;;;22.40;99.90;;;;;;5011531;28;20121;-89
2021/06/05 08:19:23;;;;;;;1.42;1.30;;;21.80;99.90;;;;;;5011910;28;20386;-88
2021/06/05 08:21:49;;;;;;;1.55;1.10;;;21.80;99.90;;;;;;5011720;28;20030;-88
2021/06/05 08:24:16;;;;;;;2.88;1.27;;;21.30;99.90;;;;;;4994749;28;20501;-88
2021/06/05 08:26:42;;;;;;;1.40;1.30;;;21.50;99.90;;;;;;5011678;28;20042;-89
2021/06/05 08:29:08;;;;;;;1.95;1.40;;;21.60;99.90;;;;;;5012681;28;20061;-91
2021/06/05 08:34:10;;;;;;;1.35;1.20;;;21.70;99.90;;;;;;5567640;23;20080;-96
2021/06/05 08:36:36;;;;;;;1.30;1.20;;;22.00;99.90;;;;;;5032746;28;20029;-94
2021/06/05 08:39:07;;;;;;;1.35;1.20;;;22.10;99.90;;;;;;5033316;28;20029;-93
2021/06/05 08:41:51;;;;;;;1.50;1.40;;;22.40;99.90;;;;;;5032428;28;20579;-93
2021/06/05 08:44:33;;;;;;;1.48;1.00;;;22.80;99.90;;;;;;5032330;28;20028;-93
2021/06/05 08:47:17;;;;;;;1.38;1.10;;;23.10;99.90;;;;;;5017753;28;20527;-93
2021/06/05 08:49:44;;;;;;;2.17;0.90;;;23.70;99.90;;;;;;5031241;28;20032;-94
2021/06/05 08:52:28;;;;;;;2.35;1.23;;;23.90;99.90;;;;;;5033776;28;20125;-94
2021/06/05 08:55:15;;;;;;;2.33;1.20;;;23.90;99.90;;;;;;5031621;28;20030;-94
2021/06/05 08:57:48;;;;;;;3.05;1.30;;;23.70;99.90;;;;;;5032090;28;20112;-93
2021/06/05 09:00:26;;;;;;;1.48;1.17;;;23.30;99.90;;;;;;5031652;28;20042;-94
2021/06/05 09:02:59;;;;;;;2.45;1.13;;;22.50;99.90;;;;;;5031527;28;20021;-93
2021/06/05 09:05:33;;;;;;;1.42;1.33;;;22.20;99.90;;;;;;5031566;28;20037;-93
2021/06/05 09:08:01;;;;;;;1.33;1.23;;;22.10;99.90;;;;;;5031350;28;20025;-94
2021/06/05 09:10:29;;;;;;;1.50;1.40;;;22.20;99.90;;;;;;5031126;28;20093;-93
2021/06/05 09:12:54;;;;;;;1.00;1.00;;;22.30;99.90;;;;;;5018295;28;20029;-92
2021/06/05 09:15:27;;;;;;;1.30;1.20;;;22.20;99.90;;;;;;5032331;28;20083;-93
2021/06/05 09:17:55;;;;;;;1.23;1.08;;;22.20;99.90;;;;;;5031963;28;20075;-93
2021/06/05 09:20:38;;;;;;;1.40;1.23;;;22.60;99.90;;;;;;5031734;28;20440;-93
2021/06/05 09:23:30;;;;;;;1.65;1.50;;;22.70;99.90;;;;;;5018021;28;20049;-94
2021/06/05 09:25:57;;;;;;;1.50;1.30;;;22.70;99.90;;;;;;5008701;28;20059;-93
2021/06/05 09:28:27;;;;;;;3.90;1.35;;;22.90;99.90;;;;;;5032294;28;20022;-93
2021/06/05 09:31:14;;;;;;;2.13;1.30;;;23.10;99.90;;;;;;5031644;28;20493;-93
2021/06/05 09:33:40;;;;;;;1.50;1.40;;;23.30;99.90;;;;;;5030864;28;20081;-93
2021/06/05 09:36:30;;;;;;;2.20;2.00;;;23.30;99.90;;;;;;5031573;28;20091;-94
2021/06/05 09:39:12;;;;;;;1.33;1.23;;;23.80;99.90;;;;;;5031893;28;20061;-93
2021/06/05 09:41:42;;;;;;;1.30;1.20;;;24.20;99.90;;;;;;5031624;28;20025;-93
2021/06/05 09:44:26;;;;;;;2.58;2.38;;;24.30;99.90;;;;;;5031108;28;20026;-93
2021/06/05 09:46:56;;;;;;;2.83;1.40;;;24.10;99.90;;;;;;5032043;28;20030;-92
2021/06/05 09:49:24;;;;;;;3.28;1.60;;;23.80;99.90;;;;;;5012194;28;20033;-93
2021/06/05 09:52:14;;;;;;;2.88;1.30;;;23.50;99.90;;;;;;5017915;28;20489;-93
2021/06/05 09:54:47;;;;;;;4.53;1.35;;;23.30;99.90;;;;;;5031803;28;20029;-93
2021/06/05 09:57:33;;;;;;;1.40;1.20;;;23.60;99.90;;;;;;5031405;28;20032;-94
2021/06/05 09:59:59;;;;;;;3.83;1.48;;;24.10;99.90;;;;;;5020147;28;20045;-94
2021/06/05 10:02:25;;;;;;;1.63;1.20;;;24.70;99.90;;;;;;5030679;28;20013;-93
2021/06/05 10:05:24;;;;;;;2.53;1.20;;;24.80;99.90;;;;;;5031785;28;20032;-93
2021/06/05 10:07:52;;;;;;;2.25;1.20;;;24.50;99.90;;;;;;5016258;28;20063;-93
2021/06/05 10:10:17;;;;;;;1.60;1.50;;;23.70;99.90;;;;;;5027744;28;20079;-93
2021/06/05 10:12:45;;;;;;;2.72;1.25;;;24.00;99.90;;;;;;5031647;28;20029;-93
2021/06/05 10:15:14;;;;;;;3.58;1.15;;;24.20;99.90;;;;;;5029742;28;20025;-93
2021/06/05 10:18:03;;;;;;;1.70;1.60;;;24.50;99.90;;;;;;5032493;28;20100;-93
2021/06/05 10:20:51;;;;;;;2.10;1.42;;;24.70;99.90;;;;;;5031688;28;20017;-93
2021/06/05 10:23:27;;;;;;;4.20;1.40;;;24.50;99.90;;;;;;5034541;28;20029;-93
2021/06/05 10:25:59;;;;;;;1.90;1.50;;;24.90;99.90;;;;;;5020127;28;20044;-93
2021/06/05 10:28:31;;;;;;;2.83;1.70;;;24.70;99.90;;;;;;5034173;28;20018;-93
2021/06/05 10:31:11;;;;;;;4.53;2.20;;;24.50;99.90;;;;;;5034896;28;20029;-93
2021/06/05 10:34:02;;;;;;;3.35;1.90;;;24.30;99.90;;;;;;5033276;28;20038;-93
2021/06/05 10:36:54;;;;;;;3.33;1.80;;;24.10;99.90;;;;;;5016966;28;20055;-94
2021/06/05 10:39:30;;;;;;;1.88;1.55;;;23.70;99.90;;;;;;5031703;28;20045;-93
2021/06/05 10:42:18;;;;;;;1.55;1.45;;;23.70;99.90;;;;;;5033962;28;20068;-95
2021/06/05 10:44:44;;;;;;;1.30;1.20;;;23.30;99.90;;;;;;5033079;28;20033;-93
2021/06/05 10:47:43;;;;;;;1.30;1.20;;;23.00;99.90;;;;;;5034731;28;20045;-93
2021/06/05 10:50:34;;;;;;;1.40;1.30;;;23.30;99.90;;;;;;5020395;28;20494;-93
2021/06/05 10:53:13;;;;;;;2.60;1.13;;;23.60;99.90;;;;;;5020052;28;20497;-93
2021/06/05 10:55:50;;;;;;;1.98;1.00;;;24.20;99.90;;;;;;5034078;28;20481;-93
2021/06/05 10:58:27;;;;;;;1.27;1.15;;;23.70;99.90;;;;;;5031211;28;20474;-93
2021/06/05 11:00:58;;;;;;;3.03;0.95;;;24.30;99.90;;;;;;5033762;28;20083;-93
2021/06/05 11:03:26;;;;;;;1.75;1.65;;;24.20;99.90;;;;;;5033977;28;20039;-93
2021/06/05 11:06:21;;;;;;;1.13;0.98;;;24.10;99.90;;;;;;5033686;28;20383;-94
2021/06/05 11:08:52;;;;;;;1.00;0.90;;;24.30;99.90;;;;;;5034239;28;20032;-93
2021/06/05 11:12:04;;;;;;;0.70;0.70;;;23.90;99.90;;;;;;5034024;28;20018;-93
2021/06/05 11:14:36;;;;;;;0.55;0.50;;;23.50;99.90;;;;;;4937359;29;20040;-93
2021/06/05 11:17:05;;;;;;;0.68;0.40;;;23.30;99.90;;;;;;4953805;28;20047;-92
2021/06/05 11:19:39;;;;;;;0.40;0.40;;;23.50;99.90;;;;;;4973264;28;20162;-92
2021/06/05 11:22:11;;;;;;;1.10;0.40;;;23.20;99.90;;;;;;4972119;28;20074;-93
2021/06/05 11:24:38;;;;;;;0.45;0.45;;;23.30;99.90;;;;;;4956795;28;20043;-93
2021/06/05 11:27:10;;;;;;;0.30;0.30;;;23.30;99.90;;;;;;4974518;28;20038;-93
2021/06/05 11:29:35;;;;;;;0.30;0.30;;;23.20;99.90;;;;;;4969882;28;20044;-93
2021/06/05 11:32:19;;;;;;;0.75;0.43;;;23.50;99.90;;;;;;4972041;28;20535;-92
2021/06/05 11:34:44;;;;;;;0.32;0.28;;;24.20;99.90;;;;;;4956584;28;20043;-93
2021/06/05 11:37:13;;;;;;;0.30;0.30;;;23.90;99.90;;;;;;4972636;28;20138;-93
2021/06/05 11:39:42;;;;;;;0.40;0.40;;;24.10;99.90;;;;;;4951984;28;20506;-93
2021/06/05 11:42:20;;;;;;;1.88;0.60;;;24.60;99.90;;;;;;4952414;28;20031;-93
2021/06/05 11:45:09;;;;;;;0.30;0.30;;;24.30;99.90;;;;;;4968225;28;20038;-92
2021/06/05 11:47:39;;;;;;;1.23;0.30;;;24.40;99.90;;;;;;4956553;28;20042;-93
2021/06/05 11:50:08;;;;;;;0.40;0.40;;;25.00;99.90;;;;;;4996021;28;20084;-93
2021/06/05 11:52:51;;;;;;;0.70;0.45;;;25.30;99.90;;;;;;5034071;28;20056;-93
2021/06/05 11:55:37;;;;;;;0.30;0.30;;;25.40;99.90;;;;;;5029373;28;20032;-92
2021/06/05 11:58:09;;;;;;;2.22;0.40;;;25.40;99.90;;;;;;5031798;28;20029;-92
2021/06/05 12:01:02;;;;;;;0.43;0.40;;;25.10;99.90;;;;;;5035866;28;20045;-93
2021/06/05 12:03:40;;;;;;;0.90;0.25;;;25.70;99.90;;;;;;5033890;28;20025;-92
2021/06/05 12:06:16;;;;;;;1.30;0.40;;;25.40;99.90;;;;;;5032708;28;20044;-92
2021/06/05 12:08:42;;;;;;;0.70;0.40;;;24.60;99.90;;;;;;5032974;28;20041;-93
2021/06/05 12:11:21;;;;;;;0.60;0.60;;;23.90;99.90;;;;;;5033160;28;20021;-92
2021/06/05 12:13:48;;;;;;;0.40;0.40;;;24.10;99.90;;;;;;5032240;28;20064;-93
2021/06/05 12:16:22;;;;;;;0.30;0.30;;;24.00;99.90;;;;;;5016068;28;20485;-93
2021/06/05 12:18:49;;;;;;;0.40;0.20;;;23.80;99.90;;;;;;5032286;28;20430;-92
2021/06/05 12:21:33;;;;;;;0.30;0.30;;;23.90;99.90;;;;;;5032027;28;20485;-93
2021/06/05 12:24:13;;;;;;;0.52;0.40;;;24.30;99.90;;;;;;5031460;28;20441;-93
2021/06/05 12:26:57;;;;;;;0.63;0.60;;;28.10;99.90;;;;;;5031526;28;20034;-93
2021/06/05 12:29:45;;;;;;;0.55;0.20;;;30.90;99.90;;;;;;5035144;28;20021;-93
2021/06/05 12:32:28;;;;;;;1.38;0.32;;;31.70;99.90;;;;;;5019372;28;20409;-93
2021/06/05 12:34:54;;;;;;;0.32;0.30;;;31.90;99.90;;;;;;5016787;28;20069;-93
2021/06/05 12:37:21;;;;;;;0.80;0.40;;;31.70;99.90;;;;;;5015329;28;20061;-93
2021/06/05 12:39:59;;;;;;;0.52;0.50;;;31.40;99.90;;;;;;5032134;28;20037;-92
2021/06/05 12:42:29;;;;;;;0.40;0.30;;;31.10;99.90;;;;;;5032113;28;20413;-93
2021/06/05 12:45:00;;;;;;;0.40;0.40;;;31.20;99.90;;;;;;5032058;28;20029;-93
2021/06/05 12:47:31;;;;;;;0.80;0.38;;;31.00;99.90;;;;;;5030488;28;20037;-93
2021/06/05 12:49:57;;;;;;;1.33;0.40;;;30.50;99.90;;;;;;5032088;28;20017;-93
2021/06/05 12:52:28;;;;;;;0.30;0.30;;;29.90;99.90;;;;;;5033310;28;20040;-93
2021/06/05 12:55:20;;;;;;;1.15;0.40;;;29.10;99.90;;;;;;5031058;28;20100;-94
2021/06/05 12:57:52;;;;;;;0.70;0.50;;;29.30;99.90;;;;;;5031765;28;20037;-93
2021/06/05 13:00:30;;;;;;;0.57;0.52;;;28.90;99.90;;;;;;5031833;28;20087;-93
2021/06/05 13:03:16;;;;;;;0.30;0.30;;;29.80;99.90;;;;;;5031829;28;20037;-92
2021/06/05 13:05:57;;;;;;;0.65;0.35;;;29.90;99.90;;;;;;5003232;28;20476;-92
2021/06/05 13:08:39;;;;;;;1.00;0.40;;;28.90;99.90;;;;;;5032258;28;20029;-93
2021/06/05 13:11:07;;;;;;;0.30;0.30;;;29.20;99.90;;;;;;5031604;28;20056;-92
2021/06/05 13:13:34;;;;;;;0.30;0.30;;;28.60;99.90;;;;;;5031858;28;20040;-93